sensor_id;sensor_type;location;lat;lon;timestamp;P1;durP1;ratioP1;P2;durP2;ratioP2
27612;SDS011;15036;48.094;-1.690;2023-02-15T00:01:30;36.05;;;25.52;;
27612;SDS011;15036;48.094;-1.690;2023-02-15T00:03:56;38.05;;;26.38;;
27612;SDS011;15036;48.094;-1.690;2023-02-15T00:06:21;34.90;;;25.38;;
27612;SDS011;15036;48.094;-1.690;2023-02-15T00:08:47;35.65;;;25.27;;
27612;SDS011;15036;48.094;-1.690;2023-02-15T00:11:13;34.47;;;25.30;;
27612;SDS011;15036;48.094;-1.690;2023-02-15T00:13:40;37.38;;;26.17;;
27612;SDS011;15036;48.094;-1.690;2023-02-15T00:16:10;35.40;;;25.30;;
27612;SDS011;15036;48.094;-1.690;2023-02-15T00:18:37;35.10;;;25.30;;
27612;SDS011;15036;48.094;-1.690;2023-02-15T00:21:04;37.58;;;24.80;;
27612;SDS011;15036;48.094;-1.690;2023-02-15T00:23:31;35.45;;;24.52;;
27612;SDS011;15036;48.094;-1.690;2023-02-15T00:26:06;35.47;;;25.80;;
27612;SDS011;15036;48.094;-1.690;2023-02-15T00:28:33;34.22;;;25.02;;
27612;SDS011;15036;48.094;-1.690;2023-02-15T00:31:02;34.58;;;24.00;;
27612;SDS011;15036;48.094;-1.690;2023-02-15T00:33:29;36.08;;;25.20;;
27612;SDS011;15036;48.094;-1.690;2023-02-15T00:35:57;37.13;;;25.48;;
27612;SDS011;15036;48.094;-1.690;2023-02-15T00:38:24;42.83;;;27.05;;
27612;SDS011;15036;48.094;-1.690;2023-02-15T00:40:55;36.55;;;25.45;;
27612;SDS011;15036;48.094;-1.690;2023-02-15T00:43:21;38.38;;;25.77;;
27612;SDS011;15036;48.094;-1.690;2023-02-15T00:45:47;36.45;;;25.88;;
27612;SDS011;15036;48.094;-1.690;2023-02-15T00:48:13;38.38;;;25.30;;
27612;SDS011;15036;48.094;-1.690;2023-02-15T00:50:39;35.20;;;25.40;;
27612;SDS011;15036;48.094;-1.690;2023-02-15T00:53:04;35.45;;;24.48;;
27612;SDS011;15036;48.094;-1.690;2023-02-15T00:55:30;37.40;;;25.10;;
27612;SDS011;15036;48.094;-1.690;2023-02-15T00:57:55;36.33;;;24.90;;
27612;SDS011;15036;48.094;-1.690;2023-02-15T01:00:21;33.42;;;24.42;;
27612;SDS011;15036;48.094;-1.690;2023-02-15T01:02:46;36.10;;;24.25;;
27612;SDS011;15036;48.094;-1.690;2023-02-15T01:05:12;33.75;;;24.73;;
27612;SDS011;15036;48.094;-1.690;2023-02-15T01:07:37;32.42;;;24.30;;
27612;SDS011;15036;48.094;-1.690;2023-02-15T01:10:03;32.55;;;23.95;;
27612;SDS011;15036;48.094;-1.690;2023-02-15T01:12:30;33.58;;;23.42;;
27612;SDS011;15036;48.094;-1.690;2023-02-15T01:14:55;32.63;;;23.17;;
27612;SDS011;15036;48.094;-1.690;2023-02-15T01:17:21;33.40;;;25.10;;
27612;SDS011;15036;48.094;-1.690;2023-02-15T01:19:46;37.75;;;25.65;;
27612;SDS011;15036;48.094;-1.690;2023-02-15T01:22:11;34.60;;;24.17;;
27612;SDS011;15036;48.094;-1.690;2023-02-15T01:24:37;34.42;;;23.80;;
27612;SDS011;15036;48.094;-1.690;2023-02-15T01:27:02;37.70;;;26.00;;
27612;SDS011;15036;48.094;-1.690;2023-02-15T01:29:27;34.22;;;24.88;;
27612;SDS011;15036;48.094;-1.690;2023-02-15T01:31:53;30.80;;;23.17;;
27612;SDS011;15036;48.094;-1.690;2023-02-15T01:34:18;34.63;;;24.45;;
27612;SDS011;15036;48.094;-1.690;2023-02-15T01:36:44;36.00;;;24.33;;
27612;SDS011;15036;48.094;-1.690;2023-02-15T01:39:09;35.47;;;24.23;;
27612;SDS011;15036;48.094;-1.690;2023-02-15T01:41:35;32.28;;;23.58;;
27612;SDS011;15036;48.094;-1.690;2023-02-15T01:44:01;32.75;;;23.35;;
27612;SDS011;15036;48.094;-1.690;2023-02-15T01:46:38;29.67;;;22.73;;
27612;SDS011;15036;48.094;-1.690;2023-02-15T01:49:16;35.40;;;23.90;;
27612;SDS011;15036;48.094;-1.690;2023-02-15T01:51:44;32.95;;;23.30;;
27612;SDS011;15036;48.094;-1.690;2023-02-15T01:54:20;32.65;;;23.83;;
27612;SDS011;15036;48.094;-1.690;2023-02-15T01:56:51;35.35;;;23.25;;
27612;SDS011;15036;48.094;-1.690;2023-02-15T01:59:19;34.03;;;23.45;;
27612;SDS011;15036;48.094;-1.690;2023-02-15T02:01:46;34.38;;;23.75;;
27612;SDS011;15036;48.094;-1.690;2023-02-15T02:07:00;34.17;;;23.40;;
27612;SDS011;15036;48.094;-1.690;2023-02-15T02:09:26;31.90;;;23.38;;
27612;SDS011;15036;48.094;-1.690;2023-02-15T02:11:52;34.45;;;23.30;;
27612;SDS011;15036;48.094;-1.690;2023-02-15T02:14:19;31.33;;;22.88;;
27612;SDS011;15036;48.094;-1.690;2023-02-15T02:16:54;36.22;;;23.95;;
27612;SDS011;15036;48.094;-1.690;2023-02-15T02:38:11;32.33;;;22.63;;
27612;SDS011;15036;48.094;-1.690;2023-02-15T02:41:07;33.17;;;23.77;;
27612;SDS011;15036;48.094;-1.690;2023-02-15T02:45:02;37.00;;;24.02;;
27612;SDS011;15036;48.094;-1.690;2023-02-15T02:50:01;33.10;;;23.33;;
27612;SDS011;15036;48.094;-1.690;2023-02-15T02:52:42;33.13;;;22.85;;
27612;SDS011;15036;48.094;-1.690;2023-02-15T02:55:25;33.45;;;23.88;;
27612;SDS011;15036;48.094;-1.690;2023-02-15T02:58:05;34.70;;;24.23;;
27612;SDS011;15036;48.094;-1.690;2023-02-15T03:00:34;31.52;;;22.73;;
27612;SDS011;15036;48.094;-1.690;2023-02-15T03:03:03;30.52;;;22.70;;
27612;SDS011;15036;48.094;-1.690;2023-02-15T03:05:34;32.75;;;22.73;;
27612;SDS011;15036;48.094;-1.690;2023-02-15T03:08:06;33.55;;;23.70;;
27612;SDS011;15036;48.094;-1.690;2023-02-15T03:10:34;33.13;;;23.88;;
27612;SDS011;15036;48.094;-1.690;2023-02-15T03:13:03;35.40;;;23.35;;
27612;SDS011;15036;48.094;-1.690;2023-02-15T03:15:30;33.95;;;23.33;;
27612;SDS011;15036;48.094;-1.690;2023-02-15T03:18:20;32.50;;;22.73;;
27612;SDS011;15036;48.094;-1.690;2023-02-15T03:20:51;31.50;;;22.20;;
27612;SDS011;15036;48.094;-1.690;2023-02-15T03:23:19;32.38;;;22.98;;
27612;SDS011;15036;48.094;-1.690;2023-02-15T03:25:50;28.08;;;21.15;;
27612;SDS011;15036;48.094;-1.690;2023-02-15T03:28:20;29.15;;;22.08;;
27612;SDS011;15036;48.094;-1.690;2023-02-15T03:30:51;34.13;;;22.73;;
27612;SDS011;15036;48.094;-1.690;2023-02-15T03:33:20;32.40;;;23.43;;
27612;SDS011;15036;48.094;-1.690;2023-02-15T03:38:25;31.02;;;22.05;;
27612;SDS011;15036;48.094;-1.690;2023-02-15T03:40:56;31.20;;;22.35;;
27612;SDS011;15036;48.094;-1.690;2023-02-15T03:51:35;27.98;;;20.52;;
27612;SDS011;15036;48.094;-1.690;2023-02-15T03:56:33;31.35;;;22.48;;
27612;SDS011;15036;48.094;-1.690;2023-02-15T03:58:59;32.47;;;21.92;;
27612;SDS011;15036;48.094;-1.690;2023-02-15T04:04:37;32.58;;;21.60;;
27612;SDS011;15036;48.094;-1.690;2023-02-15T04:07:07;31.85;;;21.85;;
27612;SDS011;15036;48.094;-1.690;2023-02-15T04:09:33;32.88;;;22.30;;
27612;SDS011;15036;48.094;-1.690;2023-02-15T04:12:17;30.65;;;21.65;;
27612;SDS011;15036;48.094;-1.690;2023-02-15T04:14:43;30.88;;;21.98;;
27612;SDS011;15036;48.094;-1.690;2023-02-15T04:17:27;28.92;;;20.70;;
27612;SDS011;15036;48.094;-1.690;2023-02-15T04:19:52;32.13;;;21.23;;
27612;SDS011;15036;48.094;-1.690;2023-02-15T04:22:36;29.15;;;20.75;;
27612;SDS011;15036;48.094;-1.690;2023-02-15T04:25:20;27.27;;;20.42;;
27612;SDS011;15036;48.094;-1.690;2023-02-15T04:27:49;27.52;;;19.70;;
27612;SDS011;15036;48.094;-1.690;2023-02-15T04:30:16;29.27;;;20.70;;
27612;SDS011;15036;48.094;-1.690;2023-02-15T04:32:43;29.52;;;21.67;;
27612;SDS011;15036;48.094;-1.690;2023-02-15T04:35:09;32.90;;;21.88;;
27612;SDS011;15036;48.094;-1.690;2023-02-15T04:37:35;32.70;;;21.55;;
27612;SDS011;15036;48.094;-1.690;2023-02-15T04:40:00;28.90;;;20.45;;
27612;SDS011;15036;48.094;-1.690;2023-02-15T04:42:26;31.25;;;21.45;;
27612;SDS011;15036;48.094;-1.690;2023-02-15T04:44:52;28.90;;;20.60;;
27612;SDS011;15036;48.094;-1.690;2023-02-15T04:47:18;30.17;;;20.27;;
27612;SDS011;15036;48.094;-1.690;2023-02-15T04:49:44;28.38;;;20.13;;
27612;SDS011;15036;48.094;-1.690;2023-02-15T04:52:09;29.02;;;19.77;;
27612;SDS011;15036;48.094;-1.690;2023-02-15T04:54:35;27.42;;;19.77;;
27612;SDS011;15036;48.094;-1.690;2023-02-15T04:57:00;28.90;;;20.25;;
27612;SDS011;15036;48.094;-1.690;2023-02-15T04:59:26;29.42;;;20.35;;
27612;SDS011;15036;48.094;-1.690;2023-02-15T05:01:52;28.20;;;20.92;;
27612;SDS011;15036;48.094;-1.690;2023-02-15T05:04:17;31.48;;;21.30;;
27612;SDS011;15036;48.094;-1.690;2023-02-15T05:06:42;31.90;;;21.77;;
27612;SDS011;15036;48.094;-1.690;2023-02-15T05:09:08;32.13;;;21.60;;
27612;SDS011;15036;48.094;-1.690;2023-02-15T05:11:33;31.48;;;21.17;;
27612;SDS011;15036;48.094;-1.690;2023-02-15T05:13:58;32.25;;;22.35;;
27612;SDS011;15036;48.094;-1.690;2023-02-15T05:16:24;30.80;;;21.58;;
27612;SDS011;15036;48.094;-1.690;2023-02-15T05:18:50;30.40;;;21.73;;
27612;SDS011;15036;48.094;-1.690;2023-02-15T05:21:15;32.00;;;21.83;;
27612;SDS011;15036;48.094;-1.690;2023-02-15T05:23:41;34.92;;;22.27;;
27612;SDS011;15036;48.094;-1.690;2023-02-15T05:26:08;31.60;;;22.55;;
27612;SDS011;15036;48.094;-1.690;2023-02-15T05:28:56;34.67;;;22.55;;
27612;SDS011;15036;48.094;-1.690;2023-02-15T05:31:22;33.95;;;21.42;;
27612;SDS011;15036;48.094;-1.690;2023-02-15T05:33:47;31.50;;;22.15;;
27612;SDS011;15036;48.094;-1.690;2023-02-15T05:36:13;31.60;;;21.88;;
27612;SDS011;15036;48.094;-1.690;2023-02-15T05:38:38;30.65;;;20.83;;
27612;SDS011;15036;48.094;-1.690;2023-02-15T05:41:04;30.90;;;21.08;;
27612;SDS011;15036;48.094;-1.690;2023-02-15T05:43:31;28.67;;;20.38;;
27612;SDS011;15036;48.094;-1.690;2023-02-15T05:45:57;33.42;;;21.45;;
27612;SDS011;15036;48.094;-1.690;2023-02-15T05:48:23;30.52;;;21.08;;
27612;SDS011;15036;48.094;-1.690;2023-02-15T05:50:56;30.45;;;23.02;;
27612;SDS011;15036;48.094;-1.690;2023-02-15T05:53:33;29.63;;;22.20;;
27612;SDS011;15036;48.094;-1.690;2023-02-15T05:56:01;31.52;;;22.52;;
27612;SDS011;15036;48.094;-1.690;2023-02-15T05:58:28;30.95;;;22.70;;
27612;SDS011;15036;48.094;-1.690;2023-02-15T06:00:58;33.50;;;21.73;;
27612;SDS011;15036;48.094;-1.690;2023-02-15T06:03:24;30.75;;;21.45;;
27612;SDS011;15036;48.094;-1.690;2023-02-15T06:05:50;30.27;;;21.80;;
27612;SDS011;15036;48.094;-1.690;2023-02-15T06:08:16;30.33;;;21.90;;
27612;SDS011;15036;48.094;-1.690;2023-02-15T06:10:42;29.42;;;21.35;;
27612;SDS011;15036;48.094;-1.690;2023-02-15T06:13:08;31.20;;;21.30;;
27612;SDS011;15036;48.094;-1.690;2023-02-15T06:15:33;28.88;;;20.98;;
27612;SDS011;15036;48.094;-1.690;2023-02-15T06:17:58;30.75;;;21.60;;
27612;SDS011;15036;48.094;-1.690;2023-02-15T06:20:24;31.80;;;21.73;;
27612;SDS011;15036;48.094;-1.690;2023-02-15T06:22:49;31.08;;;21.25;;
27612;SDS011;15036;48.094;-1.690;2023-02-15T06:25:15;32.35;;;20.92;;
27612;SDS011;15036;48.094;-1.690;2023-02-15T06:27:41;30.58;;;20.67;;
27612;SDS011;15036;48.094;-1.690;2023-02-15T06:30:08;33.10;;;21.85;;
27612;SDS011;15036;48.094;-1.690;2023-02-15T06:32:34;32.35;;;22.15;;
27612;SDS011;15036;48.094;-1.690;2023-02-15T06:34:59;29.83;;;21.67;;
27612;SDS011;15036;48.094;-1.690;2023-02-15T06:37:24;31.65;;;22.65;;
27612;SDS011;15036;48.094;-1.690;2023-02-15T06:39:50;33.13;;;22.80;;
27612;SDS011;15036;48.094;-1.690;2023-02-15T06:42:15;35.67;;;22.90;;
27612;SDS011;15036;48.094;-1.690;2023-02-15T06:44:42;33.85;;;22.92;;
27612;SDS011;15036;48.094;-1.690;2023-02-15T06:47:08;30.70;;;21.83;;
27612;SDS011;15036;48.094;-1.690;2023-02-15T06:49:33;32.75;;;21.88;;
27612;SDS011;15036;48.094;-1.690;2023-02-15T06:51:59;32.75;;;22.30;;
27612;SDS011;15036;48.094;-1.690;2023-02-15T06:54:24;34.50;;;23.00;;
27612;SDS011;15036;48.094;-1.690;2023-02-15T06:56:49;32.40;;;21.10;;
27612;SDS011;15036;48.094;-1.690;2023-02-15T06:59:15;34.53;;;23.27;;
27612;SDS011;15036;48.094;-1.690;2023-02-15T07:01:40;35.10;;;21.90;;
27612;SDS011;15036;48.094;-1.690;2023-02-15T07:04:05;33.47;;;21.83;;
27612;SDS011;15036;48.094;-1.690;2023-02-15T07:06:33;33.55;;;22.98;;
27612;SDS011;15036;48.094;-1.690;2023-02-15T07:08:59;34.45;;;22.65;;
27612;SDS011;15036;48.094;-1.690;2023-02-15T07:11:26;35.55;;;23.42;;
27612;SDS011;15036;48.094;-1.690;2023-02-15T07:14:10;33.80;;;23.88;;
27612;SDS011;15036;48.094;-1.690;2023-02-15T07:16:35;32.63;;;23.08;;
27612;SDS011;15036;48.094;-1.690;2023-02-15T07:19:01;34.72;;;23.88;;
27612;SDS011;15036;48.094;-1.690;2023-02-15T07:21:26;35.13;;;23.17;;
27612;SDS011;15036;48.094;-1.690;2023-02-15T07:23:55;32.75;;;22.48;;
27612;SDS011;15036;48.094;-1.690;2023-02-15T07:26:21;33.55;;;23.23;;
27612;SDS011;15036;48.094;-1.690;2023-02-15T07:28:46;35.03;;;22.67;;
27612;SDS011;15036;48.094;-1.690;2023-02-15T07:31:12;30.27;;;20.45;;
27612;SDS011;15036;48.094;-1.690;2023-02-15T07:33:37;28.88;;;20.67;;
27612;SDS011;15036;48.094;-1.690;2023-02-15T07:36:03;28.65;;;20.48;;
27612;SDS011;15036;48.094;-1.690;2023-02-15T07:38:30;31.52;;;20.60;;
27612;SDS011;15036;48.094;-1.690;2023-02-15T07:41:07;27.50;;;19.08;;
27612;SDS011;15036;48.094;-1.690;2023-02-15T07:43:35;27.33;;;19.02;;
27612;SDS011;15036;48.094;-1.690;2023-02-15T07:46:03;27.38;;;19.17;;
27612;SDS011;15036;48.094;-1.690;2023-02-15T07:48:31;25.27;;;18.63;;
27612;SDS011;15036;48.094;-1.690;2023-02-15T07:50:59;28.65;;;19.05;;
27612;SDS011;15036;48.094;-1.690;2023-02-15T07:53:26;29.60;;;19.50;;
27612;SDS011;15036;48.094;-1.690;2023-02-15T07:55:51;29.70;;;19.58;;
27612;SDS011;15036;48.094;-1.690;2023-02-15T07:58:17;29.17;;;19.58;;
27612;SDS011;15036;48.094;-1.690;2023-02-15T08:00:43;31.27;;;20.88;;
27612;SDS011;15036;48.094;-1.690;2023-02-15T08:03:24;27.90;;;19.50;;
27612;SDS011;15036;48.094;-1.690;2023-02-15T08:05:55;27.80;;;18.88;;
27612;SDS011;15036;48.094;-1.690;2023-02-15T08:08:24;29.67;;;19.92;;
27612;SDS011;15036;48.094;-1.690;2023-02-15T08:11:06;28.13;;;19.45;;
27612;SDS011;15036;48.094;-1.690;2023-02-15T08:13:50;28.23;;;19.42;;
27612;SDS011;15036;48.094;-1.690;2023-02-15T08:19:06;27.60;;;18.98;;
27612;SDS011;15036;48.094;-1.690;2023-02-15T08:21:45;28.25;;;19.33;;
27612;SDS011;15036;48.094;-1.690;2023-02-15T08:24:13;31.67;;;20.17;;
27612;SDS011;15036;48.094;-1.690;2023-02-15T08:26:40;31.83;;;20.40;;
27612;SDS011;15036;48.094;-1.690;2023-02-15T08:29:06;28.38;;;20.10;;
27612;SDS011;15036;48.094;-1.690;2023-02-15T08:31:33;28.48;;;19.02;;
27612;SDS011;15036;48.094;-1.690;2023-02-15T08:33:59;27.63;;;19.95;;
27612;SDS011;15036;48.094;-1.690;2023-02-15T08:36:28;27.42;;;18.83;;
27612;SDS011;15036;48.094;-1.690;2023-02-15T08:39:00;28.55;;;19.67;;
27612;SDS011;15036;48.094;-1.690;2023-02-15T08:41:31;29.58;;;20.58;;
27612;SDS011;15036;48.094;-1.690;2023-02-15T08:43:59;28.48;;;19.58;;
27612;SDS011;15036;48.094;-1.690;2023-02-15T08:46:27;28.55;;;20.23;;
27612;SDS011;15036;48.094;-1.690;2023-02-15T08:48:54;32.25;;;20.92;;
27612;SDS011;15036;48.094;-1.690;2023-02-15T08:51:23;30.17;;;19.88;;
27612;SDS011;15036;48.094;-1.690;2023-02-15T08:53:51;32.90;;;20.58;;
27612;SDS011;15036;48.094;-1.690;2023-02-15T08:56:19;28.38;;;19.95;;
27612;SDS011;15036;48.094;-1.690;2023-02-15T08:58:46;31.05;;;20.95;;
27612;SDS011;15036;48.094;-1.690;2023-02-15T09:01:15;30.55;;;21.55;;
27612;SDS011;15036;48.094;-1.690;2023-02-15T09:03:43;29.33;;;20.67;;
27612;SDS011;15036;48.094;-1.690;2023-02-15T09:06:10;33.30;;;21.85;;
27612;SDS011;15036;48.094;-1.690;2023-02-15T09:08:35;27.80;;;20.00;;
27612;SDS011;15036;48.094;-1.690;2023-02-15T09:13:33;35.50;;;25.15;;
27612;SDS011;15036;48.094;-1.690;2023-02-15T09:15:59;34.10;;;23.30;;
27612;SDS011;15036;48.094;-1.690;2023-02-15T09:18:26;30.85;;;21.70;;
27612;SDS011;15036;48.094;-1.690;2023-02-15T09:20:52;30.35;;;21.95;;
27612;SDS011;15036;48.094;-1.690;2023-02-15T09:23:17;31.23;;;22.15;;
27612;SDS011;15036;48.094;-1.690;2023-02-15T09:25:42;34.03;;;22.25;;
27612;SDS011;15036;48.094;-1.690;2023-02-15T09:28:08;33.00;;;21.70;;
27612;SDS011;15036;48.094;-1.690;2023-02-15T09:30:33;30.33;;;23.30;;
27612;SDS011;15036;48.094;-1.690;2023-02-15T09:32:59;30.77;;;22.05;;
27612;SDS011;15036;48.094;-1.690;2023-02-15T09:35:24;32.28;;;21.20;;
27612;SDS011;15036;48.094;-1.690;2023-02-15T09:37:50;28.77;;;20.90;;
27612;SDS011;15036;48.094;-1.690;2023-02-15T09:40:15;27.90;;;20.75;;
27612;SDS011;15036;48.094;-1.690;2023-02-15T09:45:12;29.75;;;21.17;;
27612;SDS011;15036;48.094;-1.690;2023-02-15T09:56:37;29.10;;;20.98;;
27612;SDS011;15036;48.094;-1.690;2023-02-15T10:04:54;75.13;;;23.38;;
27612;SDS011;15036;48.094;-1.690;2023-02-15T10:07:38;27.02;;;21.08;;
27612;SDS011;15036;48.094;-1.690;2023-02-15T10:13:13;28.83;;;21.35;;
27612;SDS011;15036;48.094;-1.690;2023-02-15T10:19:00;28.50;;;20.85;;
27612;SDS011;15036;48.094;-1.690;2023-02-15T10:21:39;28.40;;;20.80;;
27612;SDS011;15036;48.094;-1.690;2023-02-15T10:26:49;32.95;;;21.48;;
27612;SDS011;15036;48.094;-1.690;2023-02-15T10:32:10;30.52;;;21.35;;
27612;SDS011;15036;48.094;-1.690;2023-02-15T10:34:56;29.65;;;22.27;;
27612;SDS011;15036;48.094;-1.690;2023-02-15T10:37:53;29.33;;;22.13;;
27612;SDS011;15036;48.094;-1.690;2023-02-15T10:40:41;31.92;;;20.77;;
27612;SDS011;15036;48.094;-1.690;2023-02-15T10:43:25;27.73;;;21.45;;
27612;SDS011;15036;48.094;-1.690;2023-02-15T10:54:49;28.50;;;21.05;;
27612;SDS011;15036;48.094;-1.690;2023-02-15T11:05:34;24.42;;;18.80;;
27612;SDS011;15036;48.094;-1.690;2023-02-15T11:08:14;25.25;;;19.23;;
27612;SDS011;15036;48.094;-1.690;2023-02-15T11:13:14;28.98;;;19.27;;
27612;SDS011;15036;48.094;-1.690;2023-02-15T11:15:44;27.15;;;19.73;;
27612;SDS011;15036;48.094;-1.690;2023-02-15T11:18:25;30.55;;;20.10;;
27612;SDS011;15036;48.094;-1.690;2023-02-15T11:20:58;27.33;;;20.73;;
27612;SDS011;15036;48.094;-1.690;2023-02-15T11:23:29;29.20;;;21.77;;
27612;SDS011;15036;48.094;-1.690;2023-02-15T11:26:00;24.88;;;19.70;;
27612;SDS011;15036;48.094;-1.690;2023-02-15T11:28:33;23.77;;;18.88;;
27612;SDS011;15036;48.094;-1.690;2023-02-15T11:31:11;23.65;;;18.60;;
27612;SDS011;15036;48.094;-1.690;2023-02-15T11:33:42;26.23;;;19.50;;
27612;SDS011;15036;48.094;-1.690;2023-02-15T11:36:44;22.67;;;18.95;;
27612;SDS011;15036;48.094;-1.690;2023-02-15T11:39:09;25.75;;;18.77;;
27612;SDS011;15036;48.094;-1.690;2023-02-15T11:41:38;22.77;;;18.80;;
27612;SDS011;15036;48.094;-1.690;2023-02-15T11:44:20;24.90;;;18.75;;
27612;SDS011;15036;48.094;-1.690;2023-02-15T11:46:51;27.08;;;18.90;;
27612;SDS011;15036;48.094;-1.690;2023-02-15T11:49:23;23.35;;;18.90;;
27612;SDS011;15036;48.094;-1.690;2023-02-15T11:51:54;24.73;;;19.27;;
27612;SDS011;15036;48.094;-1.690;2023-02-15T11:54:23;25.23;;;19.88;;
27612;SDS011;15036;48.094;-1.690;2023-02-15T11:56:53;27.45;;;19.85;;
27612;SDS011;15036;48.094;-1.690;2023-02-15T11:59:24;22.90;;;18.75;;
27612;SDS011;15036;48.094;-1.690;2023-02-15T12:01:54;26.75;;;19.83;;
27612;SDS011;15036;48.094;-1.690;2023-02-15T12:04:29;26.45;;;19.55;;
27612;SDS011;15036;48.094;-1.690;2023-02-15T12:09:41;23.35;;;18.77;;
27612;SDS011;15036;48.094;-1.690;2023-02-15T12:14:51;25.23;;;19.52;;
27612;SDS011;15036;48.094;-1.690;2023-02-15T12:17:20;24.45;;;18.85;;
27612;SDS011;15036;48.094;-1.690;2023-02-15T12:19:48;22.30;;;18.33;;
27612;SDS011;15036;48.094;-1.690;2023-02-15T12:22:25;23.05;;;18.35;;
27612;SDS011;15036;48.094;-1.690;2023-02-15T12:24:58;23.73;;;18.45;;
27612;SDS011;15036;48.094;-1.690;2023-02-15T12:27:27;21.60;;;18.45;;
27612;SDS011;15036;48.094;-1.690;2023-02-15T12:30:03;22.58;;;18.38;;
27612;SDS011;15036;48.094;-1.690;2023-02-15T12:32:36;24.42;;;18.83;;
27612;SDS011;15036;48.094;-1.690;2023-02-15T12:38:00;22.40;;;18.40;;
27612;SDS011;15036;48.094;-1.690;2023-02-15T12:40:27;24.55;;;19.55;;
27612;SDS011;15036;48.094;-1.690;2023-02-15T12:42:56;23.38;;;19.00;;
27612;SDS011;15036;48.094;-1.690;2023-02-15T12:50:33;25.85;;;18.45;;
27612;SDS011;15036;48.094;-1.690;2023-02-15T12:53:13;22.80;;;19.05;;
27612;SDS011;15036;48.094;-1.690;2023-02-15T12:55:59;24.58;;;17.95;;
27612;SDS011;15036;48.094;-1.690;2023-02-15T12:58:26;24.33;;;19.00;;
27612;SDS011;15036;48.094;-1.690;2023-02-15T13:03:33;25.70;;;19.02;;
27612;SDS011;15036;48.094;-1.690;2023-02-15T13:05:59;23.83;;;18.42;;
27612;SDS011;15036;48.094;-1.690;2023-02-15T13:08:28;22.60;;;18.60;;
27612;SDS011;15036;48.094;-1.690;2023-02-15T13:10:57;22.08;;;18.38;;
27612;SDS011;15036;48.094;-1.690;2023-02-15T13:13:33;22.40;;;17.45;;
27612;SDS011;15036;48.094;-1.690;2023-02-15T13:16:04;22.63;;;17.60;;
27612;SDS011;15036;48.094;-1.690;2023-02-15T13:18:42;22.95;;;17.98;;
27612;SDS011;15036;48.094;-1.690;2023-02-15T13:21:10;20.15;;;17.23;;
27612;SDS011;15036;48.094;-1.690;2023-02-15T13:23:39;20.65;;;17.00;;
27612;SDS011;15036;48.094;-1.690;2023-02-15T13:26:11;22.08;;;16.88;;
27612;SDS011;15036;48.094;-1.690;2023-02-15T13:28:42;19.52;;;16.40;;
27612;SDS011;15036;48.094;-1.690;2023-02-15T13:31:17;19.67;;;16.27;;
27612;SDS011;15036;48.094;-1.690;2023-02-15T13:33:45;20.20;;;16.73;;
27612;SDS011;15036;48.094;-1.690;2023-02-15T13:36:21;20.67;;;17.70;;
27612;SDS011;15036;48.094;-1.690;2023-02-15T13:44:49;20.13;;;16.50;;
27612;SDS011;15036;48.094;-1.690;2023-02-15T13:56:02;17.58;;;15.18;;
27612;SDS011;15036;48.094;-1.690;2023-02-15T14:01:13;19.00;;;15.77;;
27612;SDS011;15036;48.094;-1.690;2023-02-15T14:15:20;17.50;;;15.52;;
27612;SDS011;15036;48.094;-1.690;2023-02-15T14:23:01;19.63;;;15.82;;
27612;SDS011;15036;48.094;-1.690;2023-02-15T14:25:45;18.60;;;15.00;;
27612;SDS011;15036;48.094;-1.690;2023-02-15T14:30:55;16.67;;;14.27;;
27612;SDS011;15036;48.094;-1.690;2023-02-15T14:33:29;20.02;;;15.35;;
27612;SDS011;15036;48.094;-1.690;2023-02-15T14:35:59;19.83;;;14.52;;
27612;SDS011;15036;48.094;-1.690;2023-02-15T14:46:53;17.58;;;14.98;;
27612;SDS011;15036;48.094;-1.690;2023-02-15T14:49:46;17.30;;;14.68;;
27612;SDS011;15036;48.094;-1.690;2023-02-15T14:52:12;16.38;;;13.98;;
27612;SDS011;15036;48.094;-1.690;2023-02-15T14:59:46;19.33;;;14.82;;
27612;SDS011;15036;48.094;-1.690;2023-02-15T15:02:26;15.63;;;13.88;;
27612;SDS011;15036;48.094;-1.690;2023-02-15T15:14:53;15.52;;;12.88;;
27612;SDS011;15036;48.094;-1.690;2023-02-15T15:20:00;14.95;;;12.85;;
27612;SDS011;15036;48.094;-1.690;2023-02-15T15:22:28;16.45;;;14.07;;
27612;SDS011;15036;48.094;-1.690;2023-02-15T15:24:55;21.15;;;15.20;;
27612;SDS011;15036;48.094;-1.690;2023-02-15T15:38:05;15.30;;;13.68;;
27612;SDS011;15036;48.094;-1.690;2023-02-15T15:49:31;15.32;;;12.60;;
27612;SDS011;15036;48.094;-1.690;2023-02-15T15:52:01;16.45;;;13.57;;
27612;SDS011;15036;48.094;-1.690;2023-02-15T15:54:38;16.25;;;13.60;;
27612;SDS011;15036;48.094;-1.690;2023-02-15T15:57:05;15.63;;;14.02;;
27612;SDS011;15036;48.094;-1.690;2023-02-15T15:59:44;19.13;;;14.38;;
27612;SDS011;15036;48.094;-1.690;2023-02-15T16:02:11;16.92;;;13.52;;
27612;SDS011;15036;48.094;-1.690;2023-02-15T16:04:40;17.05;;;13.48;;
27612;SDS011;15036;48.094;-1.690;2023-02-15T16:07:40;15.95;;;13.38;;
27612;SDS011;15036;48.094;-1.690;2023-02-15T16:12:33;15.70;;;13.30;;
27612;SDS011;15036;48.094;-1.690;2023-02-15T16:15:04;16.50;;;13.07;;
27612;SDS011;15036;48.094;-1.690;2023-02-15T16:17:40;17.17;;;14.20;;
27612;SDS011;15036;48.094;-1.690;2023-02-15T16:20:14;18.17;;;14.40;;
27612;SDS011;15036;48.094;-1.690;2023-02-15T16:22:43;16.52;;;14.40;;
27612;SDS011;15036;48.094;-1.690;2023-02-15T16:30:19;19.15;;;14.77;;
27612;SDS011;15036;48.094;-1.690;2023-02-15T16:32:45;20.38;;;14.70;;
27612;SDS011;15036;48.094;-1.690;2023-02-15T16:35:16;19.20;;;14.73;;
27612;SDS011;15036;48.094;-1.690;2023-02-15T16:37:43;18.20;;;14.88;;
27612;SDS011;15036;48.094;-1.690;2023-02-15T16:42:50;22.08;;;16.13;;
27612;SDS011;15036;48.094;-1.690;2023-02-15T16:45:19;19.10;;;15.00;;
27612;SDS011;15036;48.094;-1.690;2023-02-15T16:47:48;19.55;;;14.80;;
27612;SDS011;15036;48.094;-1.690;2023-02-15T16:50:19;17.42;;;15.50;;
27612;SDS011;15036;48.094;-1.690;2023-02-15T16:52:47;22.65;;;16.95;;
27612;SDS011;15036;48.094;-1.690;2023-02-15T16:55:24;21.52;;;16.55;;
27612;SDS011;15036;48.094;-1.690;2023-02-15T16:57:53;19.65;;;15.73;;
27612;SDS011;15036;48.094;-1.690;2023-02-15T17:00:28;21.50;;;15.65;;
27612;SDS011;15036;48.094;-1.690;2023-02-15T17:05:47;18.27;;;15.20;;
27612;SDS011;15036;48.094;-1.690;2023-02-15T17:08:14;19.35;;;15.50;;
27612;SDS011;15036;48.094;-1.690;2023-02-15T17:10:42;20.88;;;16.48;;
27612;SDS011;15036;48.094;-1.690;2023-02-15T17:15:41;25.88;;;18.58;;
27612;SDS011;15036;48.094;-1.690;2023-02-15T17:18:12;23.00;;;17.80;;
27612;SDS011;15036;48.094;-1.690;2023-02-15T17:20:42;25.25;;;18.83;;
27612;SDS011;15036;48.094;-1.690;2023-02-15T17:23:21;28.88;;;19.42;;
27612;SDS011;15036;48.094;-1.690;2023-02-15T17:25:47;23.23;;;18.25;;
27612;SDS011;15036;48.094;-1.690;2023-02-15T17:28:17;20.50;;;16.98;;
27612;SDS011;15036;48.094;-1.690;2023-02-15T17:30:44;20.48;;;16.48;;
27612;SDS011;15036;48.094;-1.690;2023-02-15T17:33:24;24.08;;;18.08;;
27612;SDS011;15036;48.094;-1.690;2023-02-15T17:36:04;24.40;;;18.40;;
27612;SDS011;15036;48.094;-1.690;2023-02-15T17:41:44;26.65;;;18.98;;
27612;SDS011;15036;48.094;-1.690;2023-02-15T17:44:10;27.55;;;19.13;;
27612;SDS011;15036;48.094;-1.690;2023-02-15T17:46:39;30.85;;;21.90;;
27612;SDS011;15036;48.094;-1.690;2023-02-15T17:49:05;36.72;;;21.55;;
27612;SDS011;15036;48.094;-1.690;2023-02-15T17:51:31;34.08;;;23.10;;
27612;SDS011;15036;48.094;-1.690;2023-02-15T17:53:59;24.50;;;19.38;;
27612;SDS011;15036;48.094;-1.690;2023-02-15T17:56:43;28.92;;;18.33;;